sensor_id;sensor_type;location;lat;lon;timestamp;temperature;humidity
12446;DHT22;6287;50.984;7.022;2023-09-19T00:00:27;16.20;99.90
12446;DHT22;6287;50.984;7.022;2023-09-19T00:02:56;16.30;99.90
12446;DHT22;6287;50.984;7.022;2023-09-19T00:05:23;16.20;99.90
12446;DHT22;6287;50.984;7.022;2023-09-19T00:07:53;16.20;99.90
12446;DHT22;6287;50.984;7.022;2023-09-19T00:10:30;16.20;99.90
12446;DHT22;6287;50.984;7.022;2023-09-19T00:13:03;16.20;99.90
12446;DHT22;6287;50.984;7.022;2023-09-19T00:15:35;16.20;99.90
12446;DHT22;6287;50.984;7.022;2023-09-19T00:18:01;16.20;99.90
12446;DHT22;6287;50.984;7.022;2023-09-19T00:20:27;16.10;99.90
12446;DHT22;6287;50.984;7.022;2023-09-19T00:22:55;16.20;99.90
12446;DHT22;6287;50.984;7.022;2023-09-19T00:25:22;16.10;99.90
12446;DHT22;6287;50.984;7.022;2023-09-19T00:27:48;16.10;99.90
12446;DHT22;6287;50.984;7.022;2023-09-19T00:30:17;16.10;99.90
12446;DHT22;6287;50.984;7.022;2023-09-19T00:32:47;16.10;99.90
12446;DHT22;6287;50.984;7.022;2023-09-19T00:35:15;16.10;99.90
12446;DHT22;6287;50.984;7.022;2023-09-19T00:37:44;16.10;99.90
12446;DHT22;6287;50.984;7.022;2023-09-19T00:40:11;16.00;99.90
12446;DHT22;6287;50.984;7.022;2023-09-19T00:42:41;16.00;99.90
12446;DHT22;6287;50.984;7.022;2023-09-19T00:45:14;16.00;99.90
12446;DHT22;6287;50.984;7.022;2023-09-19T00:47:50;16.00;99.90
12446;DHT22;6287;50.984;7.022;2023-09-19T00:50:21;16.00;99.90
12446;DHT22;6287;50.984;7.022;2023-09-19T00:52:49;15.90;99.90
12446;DHT22;6287;50.984;7.022;2023-09-19T00:55:18;16.00;99.90
12446;DHT22;6287;50.984;7.022;2023-09-19T00:57:49;15.90;99.90
12446;DHT22;6287;50.984;7.022;2023-09-19T01:00:17;15.90;99.90
12446;DHT22;6287;50.984;7.022;2023-09-19T01:02:45;15.90;99.90
12446;DHT22;6287;50.984;7.022;2023-09-19T01:05:14;15.80;99.90
12446;DHT22;6287;50.984;7.022;2023-09-19T01:07:42;16.00;99.90
12446;DHT22;6287;50.984;7.022;2023-09-19T01:10:16;15.90;99.90
12446;DHT22;6287;50.984;7.022;2023-09-19T01:15:59;16.00;99.90
12446;DHT22;6287;50.984;7.022;2023-09-19T01:29:39;16.10;99.90
12446;DHT22;6287;50.984;7.022;2023-09-19T01:32:08;16.10;99.90
12446;DHT22;6287;50.984;7.022;2023-09-19T01:34:49;16.10;99.90
12446;DHT22;6287;50.984;7.022;2023-09-19T01:37:20;16.10;99.90
12446;DHT22;6287;50.984;7.022;2023-09-19T01:40:02;16.10;99.90
12446;DHT22;6287;50.984;7.022;2023-09-19T01:51:02;16.00;99.90
12446;DHT22;6287;50.984;7.022;2023-09-19T01:54:00;16.00;99.90
12446;DHT22;6287;50.984;7.022;2023-09-19T01:56:36;16.00;99.90
12446;DHT22;6287;50.984;7.022;2023-09-19T01:59:09;16.00;99.90
12446;DHT22;6287;50.984;7.022;2023-09-19T02:01:37;15.90;99.90
12446;DHT22;6287;50.984;7.022;2023-09-19T02:04:08;16.00;99.90
12446;DHT22;6287;50.984;7.022;2023-09-19T02:06:40;15.90;99.90
12446;DHT22;6287;50.984;7.022;2023-09-19T02:09:08;15.90;99.90
12446;DHT22;6287;50.984;7.022;2023-09-19T02:11:35;15.80;99.90
12446;DHT22;6287;50.984;7.022;2023-09-19T02:14:02;15.80;99.90
12446;DHT22;6287;50.984;7.022;2023-09-19T02:16:28;15.80;99.90
12446;DHT22;6287;50.984;7.022;2023-09-19T02:18:56;15.80;99.90
12446;DHT22;6287;50.984;7.022;2023-09-19T02:21:25;15.80;99.90
12446;DHT22;6287;50.984;7.022;2023-09-19T02:23:55;15.80;99.90
12446;DHT22;6287;50.984;7.022;2023-09-19T02:26:20;15.80;99.90
12446;DHT22;6287;50.984;7.022;2023-09-19T02:28:48;15.80;99.90
12446;DHT22;6287;50.984;7.022;2023-09-19T02:31:14;15.70;99.90
12446;DHT22;6287;50.984;7.022;2023-09-19T02:33:39;15.70;99.90
12446;DHT22;6287;50.984;7.022;2023-09-19T02:36:10;15.70;99.90
12446;DHT22;6287;50.984;7.022;2023-09-19T02:38:40;15.70;99.90
12446;DHT22;6287;50.984;7.022;2023-09-19T02:41:06;15.70;99.90
12446;DHT22;6287;50.984;7.022;2023-09-19T02:43:32;15.70;99.90
12446;DHT22;6287;50.984;7.022;2023-09-19T02:45:57;15.70;99.90
12446;DHT22;6287;50.984;7.022;2023-09-19T02:48:23;15.70;99.90
12446;DHT22;6287;50.984;7.022;2023-09-19T02:50:53;15.70;99.90
12446;DHT22;6287;50.984;7.022;2023-09-19T02:53:23;15.70;99.90
12446;DHT22;6287;50.984;7.022;2023-09-19T02:55:51;15.70;99.90
12446;DHT22;6287;50.984;7.022;2023-09-19T02:58:18;15.70;99.90
12446;DHT22;6287;50.984;7.022;2023-09-19T03:00:46;15.60;99.90
12446;DHT22;6287;50.984;7.022;2023-09-19T03:03:15;15.70;99.90
12446;DHT22;6287;50.984;7.022;2023-09-19T03:05:44;15.70;99.90
12446;DHT22;6287;50.984;7.022;2023-09-19T03:08:15;15.70;99.90
12446;DHT22;6287;50.984;7.022;2023-09-19T03:10:46;15.70;99.90
12446;DHT22;6287;50.984;7.022;2023-09-19T03:13:12;15.70;99.90
12446;DHT22;6287;50.984;7.022;2023-09-19T03:15:41;15.70;99.90
12446;DHT22;6287;50.984;7.022;2023-09-19T03:18:09;15.70;99.90
12446;DHT22;6287;50.984;7.022;2023-09-19T03:20:39;15.70;99.90
12446;DHT22;6287;50.984;7.022;2023-09-19T03:23:04;15.70;99.90
12446;DHT22;6287;50.984;7.022;2023-09-19T03:25:36;15.70;99.90
12446;DHT22;6287;50.984;7.022;2023-09-19T03:28:02;15.70;99.90
12446;DHT22;6287;50.984;7.022;2023-09-19T03:30:31;15.70;99.90
12446;DHT22;6287;50.984;7.022;2023-09-19T03:32:59;15.70;99.90
12446;DHT22;6287;50.984;7.022;2023-09-19T03:35:25;15.70;99.90
12446;DHT22;6287;50.984;7.022;2023-09-19T03:37:53;15.60;99.90
12446;DHT22;6287;50.984;7.022;2023-09-19T03:40:19;15.60;99.90
12446;DHT22;6287;50.984;7.022;2023-09-19T03:42:47;15.60;99.90
12446;DHT22;6287;50.984;7.022;2023-09-19T03:45:16;15.50;99.90
12446;DHT22;6287;50.984;7.022;2023-09-19T03:47:44;15.50;99.90
12446;DHT22;6287;50.984;7.022;2023-09-19T03:50:12;15.50;99.90
12446;DHT22;6287;50.984;7.022;2023-09-19T03:52:42;15.50;99.90
12446;DHT22;6287;50.984;7.022;2023-09-19T03:55:11;15.50;99.90
12446;DHT22;6287;50.984;7.022;2023-09-19T03:57:39;15.50;99.90
12446;DHT22;6287;50.984;7.022;2023-09-19T04:00:05;15.50;99.90
12446;DHT22;6287;50.984;7.022;2023-09-19T04:02:37;15.50;99.90
12446;DHT22;6287;50.984;7.022;2023-09-19T04:05:05;15.40;99.90
12446;DHT22;6287;50.984;7.022;2023-09-19T04:07:31;15.40;99.90
12446;DHT22;6287;50.984;7.022;2023-09-19T04:10:00;15.40;99.90
12446;DHT22;6287;50.984;7.022;2023-09-19T04:12:28;15.30;99.90
12446;DHT22;6287;50.984;7.022;2023-09-19T04:14:54;15.30;99.90
12446;DHT22;6287;50.984;7.022;2023-09-19T04:17:19;15.30;99.90
12446;DHT22;6287;50.984;7.022;2023-09-19T04:19:45;15.30;99.90
12446;DHT22;6287;50.984;7.022;2023-09-19T04:22:15;15.30;99.90
12446;DHT22;6287;50.984;7.022;2023-09-19T04:24:43;15.20;99.90
12446;DHT22;6287;50.984;7.022;2023-09-19T04:27:11;15.20;99.90
12446;DHT22;6287;50.984;7.022;2023-09-19T04:29:40;15.20;99.90
12446;DHT22;6287;50.984;7.022;2023-09-19T04:32:09;15.30;99.90
12446;DHT22;6287;50.984;7.022;2023-09-19T04:34:37;15.20;99.90
12446;DHT22;6287;50.984;7.022;2023-09-19T04:37:08;15.20;99.90
12446;DHT22;6287;50.984;7.022;2023-09-19T04:39:34;15.10;99.90
12446;DHT22;6287;50.984;7.022;2023-09-19T04:42:02;15.10;99.90
12446;DHT22;6287;50.984;7.022;2023-09-19T04:44:32;15.20;99.90
12446;DHT22;6287;50.984;7.022;2023-09-19T04:46:58;15.10;99.90
12446;DHT22;6287;50.984;7.022;2023-09-19T04:49:24;15.10;99.90
12446;DHT22;6287;50.984;7.022;2023-09-19T04:51:52;15.50;99.90
12446;DHT22;6287;50.984;7.022;2023-09-19T04:54:20;15.20;99.90
12446;DHT22;6287;50.984;7.022;2023-09-19T04:56:47;15.10;99.90
12446;DHT22;6287;50.984;7.022;2023-09-19T04:59:15;15.10;99.90
12446;DHT22;6287;50.984;7.022;2023-09-19T05:01:46;15.00;99.90
12446;DHT22;6287;50.984;7.022;2023-09-19T05:04:15;15.00;99.90
12446;DHT22;6287;50.984;7.022;2023-09-19T05:06:41;15.10;99.90
12446;DHT22;6287;50.984;7.022;2023-09-19T05:09:07;15.10;99.90
12446;DHT22;6287;50.984;7.022;2023-09-19T05:11:36;15.10;99.90
12446;DHT22;6287;50.984;7.022;2023-09-19T05:14:03;15.10;99.90
12446;DHT22;6287;50.984;7.022;2023-09-19T05:16:31;15.10;99.90
12446;DHT22;6287;50.984;7.022;2023-09-19T05:18:59;15.10;99.90
12446;DHT22;6287;50.984;7.022;2023-09-19T05:21:26;15.10;99.90
12446;DHT22;6287;50.984;7.022;2023-09-19T05:23:55;15.00;99.90
12446;DHT22;6287;50.984;7.022;2023-09-19T05:26:23;15.00;99.90
12446;DHT22;6287;50.984;7.022;2023-09-19T05:28:48;15.00;99.90
12446;DHT22;6287;50.984;7.022;2023-09-19T05:31:18;15.00;99.90
12446;DHT22;6287;50.984;7.022;2023-09-19T05:33:48;15.00;99.90
12446;DHT22;6287;50.984;7.022;2023-09-19T05:38:42;15.10;99.90
12446;DHT22;6287;50.984;7.022;2023-09-19T05:41:09;15.10;99.90
12446;DHT22;6287;50.984;7.022;2023-09-19T05:43:39;15.10;99.90
12446;DHT22;6287;50.984;7.022;2023-09-19T05:46:08;15.10;99.90
12446;DHT22;6287;50.984;7.022;2023-09-19T05:48:36;15.20;99.90
12446;DHT22;6287;50.984;7.022;2023-09-19T05:51:05;15.20;99.90
12446;DHT22;6287;50.984;7.022;2023-09-19T05:53:30;15.30;99.90
12446;DHT22;6287;50.984;7.022;2023-09-19T05:55:58;15.30;99.90
12446;DHT22;6287;50.984;7.022;2023-09-19T05:58:26;15.40;99.90
12446;DHT22;6287;50.984;7.022;2023-09-19T06:03:18;15.40;99.90
12446;DHT22;6287;50.984;7.022;2023-09-19T06:05:48;15.50;99.90
12446;DHT22;6287;50.984;7.022;2023-09-19T06:08:15;15.50;99.90
12446;DHT22;6287;50.984;7.022;2023-09-19T06:10:40;15.50;99.90
12446;DHT22;6287;50.984;7.022;2023-09-19T06:13:06;15.60;99.90
12446;DHT22;6287;50.984;7.022;2023-09-19T06:15:32;15.60;99.90
12446;DHT22;6287;50.984;7.022;2023-09-19T06:17:59;15.70;99.90
12446;DHT22;6287;50.984;7.022;2023-09-19T06:20:25;15.70;99.90
12446;DHT22;6287;50.984;7.022;2023-09-19T06:22:54;15.70;99.90
12446;DHT22;6287;50.984;7.022;2023-09-19T06:25:19;15.70;99.90
12446;DHT22;6287;50.984;7.022;2023-09-19T06:27:46;15.70;99.90
12446;DHT22;6287;50.984;7.022;2023-09-19T06:30:12;15.80;99.90
12446;DHT22;6287;50.984;7.022;2023-09-19T06:32:39;15.80;99.90
12446;DHT22;6287;50.984;7.022;2023-09-19T06:35:08;15.80;99.90
12446;DHT22;6287;50.984;7.022;2023-09-19T06:37:34;15.80;99.90
12446;DHT22;6287;50.984;7.022;2023-09-19T06:42:40;15.80;99.90
12446;DHT22;6287;50.984;7.022;2023-09-19T06:45:09;15.80;99.90
12446;DHT22;6287;50.984;7.022;2023-09-19T06:47:43;15.90;99.90
12446;DHT22;6287;50.984;7.022;2023-09-19T06:50:08;15.90;99.90
12446;DHT22;6287;50.984;7.022;2023-09-19T06:52:40;16.00;99.90
12446;DHT22;6287;50.984;7.022;2023-09-19T06:55:07;16.00;99.90
12446;DHT22;6287;50.984;7.022;2023-09-19T06:57:32;16.10;99.90
12446;DHT22;6287;50.984;7.022;2023-09-19T07:00:00;16.10;99.90
12446;DHT22;6287;50.984;7.022;2023-09-19T07:02:28;16.20;99.90
12446;DHT22;6287;50.984;7.022;2023-09-19T07:04:55;16.20;99.90
12446;DHT22;6287;50.984;7.022;2023-09-19T07:07:22;16.30;99.90
12446;DHT22;6287;50.984;7.022;2023-09-19T07:09:47;16.30;99.90
12446;DHT22;6287;50.984;7.022;2023-09-19T07:12:14;16.30;99.90
12446;DHT22;6287;50.984;7.022;2023-09-19T07:14:42;16.40;99.90
12446;DHT22;6287;50.984;7.022;2023-09-19T07:17:08;16.50;99.90
12446;DHT22;6287;50.984;7.022;2023-09-19T07:19:35;16.60;99.90
12446;DHT22;6287;50.984;7.022;2023-09-19T07:22:03;16.70;99.90
12446;DHT22;6287;50.984;7.022;2023-09-19T07:24:29;16.80;99.90
12446;DHT22;6287;50.984;7.022;2023-09-19T07:26:56;16.90;99.90
12446;DHT22;6287;50.984;7.022;2023-09-19T07:29:23;16.90;99.90
12446;DHT22;6287;50.984;7.022;2023-09-19T07:31:49;17.00;99.90
12446;DHT22;6287;50.984;7.022;2023-09-19T07:34:17;17.10;99.90
12446;DHT22;6287;50.984;7.022;2023-09-19T07:36:46;17.20;99.90
12446;DHT22;6287;50.984;7.022;2023-09-19T07:39:12;17.20;99.90
12446;DHT22;6287;50.984;7.022;2023-09-19T07:41:40;18.50;99.90
12446;DHT22;6287;50.984;7.022;2023-09-19T07:44:08;17.20;99.90
12446;DHT22;6287;50.984;7.022;2023-09-19T07:46:35;17.20;99.90
12446;DHT22;6287;50.984;7.022;2023-09-19T07:49:01;17.30;99.90
12446;DHT22;6287;50.984;7.022;2023-09-19T07:51:30;17.30;99.90
12446;DHT22;6287;50.984;7.022;2023-09-19T07:53:55;17.40;99.90
12446;DHT22;6287;50.984;7.022;2023-09-19T07:56:21;17.50;99.90
12446;DHT22;6287;50.984;7.022;2023-09-19T07:58:48;17.60;99.90
12446;DHT22;6287;50.984;7.022;2023-09-19T08:01:15;17.60;99.90
12446;DHT22;6287;50.984;7.022;2023-09-19T08:03:41;17.70;99.90
12446;DHT22;6287;50.984;7.022;2023-09-19T08:06:13;17.70;99.90
12446;DHT22;6287;50.984;7.022;2023-09-19T08:08:38;17.90;99.90
12446;DHT22;6287;50.984;7.022;2023-09-19T08:11:05;18.00;99.90
12446;DHT22;6287;50.984;7.022;2023-09-19T08:13:40;18.20;99.90
12446;DHT22;6287;50.984;7.022;2023-09-19T08:16:09;18.30;99.90
12446;DHT22;6287;50.984;7.022;2023-09-19T08:18:36;18.30;99.90
12446;DHT22;6287;50.984;7.022;2023-09-19T08:21:03;18.40;99.90
12446;DHT22;6287;50.984;7.022;2023-09-19T08:23:29;18.40;99.90
12446;DHT22;6287;50.984;7.022;2023-09-19T08:25:58;18.50;99.90
12446;DHT22;6287;50.984;7.022;2023-09-19T08:28:28;18.60;99.90
12446;DHT22;6287;50.984;7.022;2023-09-19T08:30:55;18.70;99.90
12446;DHT22;6287;50.984;7.022;2023-09-19T08:33:23;18.80;99.90
12446;DHT22;6287;50.984;7.022;2023-09-19T08:35:55;18.90;99.90
12446;DHT22;6287;50.984;7.022;2023-09-19T08:38:26;19.00;99.90
12446;DHT22;6287;50.984;7.022;2023-09-19T08:40:57;19.10;99.90
12446;DHT22;6287;50.984;7.022;2023-09-19T08:43:26;19.20;99.90
12446;DHT22;6287;50.984;7.022;2023-09-19T08:46:14;19.30;99.90
12446;DHT22;6287;50.984;7.022;2023-09-19T08:51:40;19.40;99.90
12446;DHT22;6287;50.984;7.022;2023-09-19T08:54:18;19.50;99.90
12446;DHT22;6287;50.984;7.022;2023-09-19T08:57:16;19.50;99.90
12446;DHT22;6287;50.984;7.022;2023-09-19T08:59:50;19.60;99.90
12446;DHT22;6287;50.984;7.022;2023-09-19T09:02:22;19.70;99.90
12446;DHT22;6287;50.984;7.022;2023-09-19T09:04:53;19.80;99.90
12446;DHT22;6287;50.984;7.022;2023-09-19T09:07:20;19.80;99.90
12446;DHT22;6287;50.984;7.022;2023-09-19T09:09:47;19.80;99.90
12446;DHT22;6287;50.984;7.022;2023-09-19T09:12:16;19.80;99.90
12446;DHT22;6287;50.984;7.022;2023-09-19T09:14:46;19.70;99.90
12446;DHT22;6287;50.984;7.022;2023-09-19T09:17:16;19.80;99.90
12446;DHT22;6287;50.984;7.022;2023-09-19T09:19:51;19.80;99.90
12446;DHT22;6287;50.984;7.022;2023-09-19T09:22:19;19.90;99.90
12446;DHT22;6287;50.984;7.022;2023-09-19T09:27:20;20.20;99.90
12446;DHT22;6287;50.984;7.022;2023-09-19T09:29:47;20.30;99.90
12446;DHT22;6287;50.984;7.022;2023-09-19T09:32:21;20.50;99.90
12446;DHT22;6287;50.984;7.022;2023-09-19T09:34:59;20.50;99.90
12446;DHT22;6287;50.984;7.022;2023-09-19T09:37:26;20.50;99.90
12446;DHT22;6287;50.984;7.022;2023-09-19T09:40:01;20.60;99.90
12446;DHT22;6287;50.984;7.022;2023-09-19T09:42:42;20.80;99.90
12446;DHT22;6287;50.984;7.022;2023-09-19T09:45:22;21.00;99.90
12446;DHT22;6287;50.984;7.022;2023-09-19T09:48:03;21.20;99.90
12446;DHT22;6287;50.984;7.022;2023-09-19T09:50:35;21.30;99.90
12446;DHT22;6287;50.984;7.022;2023-09-19T09:53:21;21.30;99.90
12446;DHT22;6287;50.984;7.022;2023-09-19T09:56:01;21.10;99.90
12446;DHT22;6287;50.984;7.022;2023-09-19T09:58:32;21.10;99.90
12446;DHT22;6287;50.984;7.022;2023-09-19T10:01:01;21.10;99.90
12446;DHT22;6287;50.984;7.022;2023-09-19T10:03:42;21.10;99.90
12446;DHT22;6287;50.984;7.022;2023-09-19T10:06:19;21.20;99.90
12446;DHT22;6287;50.984;7.022;2023-09-19T10:09:20;21.20;99.90
12446;DHT22;6287;50.984;7.022;2023-09-19T10:12:07;21.20;99.90
12446;DHT22;6287;50.984;7.022;2023-09-19T10:14:37;21.20;99.90
12446;DHT22;6287;50.984;7.022;2023-09-19T10:17:05;21.20;99.90
12446;DHT22;6287;50.984;7.022;2023-09-19T10:19:56;21.20;99.90
12446;DHT22;6287;50.984;7.022;2023-09-19T10:22:28;21.10;99.90
12446;DHT22;6287;50.984;7.022;2023-09-19T10:24:57;21.00;99.90
12446;DHT22;6287;50.984;7.022;2023-09-19T10:27:32;21.20;99.90
12446;DHT22;6287;50.984;7.022;2023-09-19T10:30:05;21.40;99.90
12446;DHT22;6287;50.984;7.022;2023-09-19T10:32:37;21.50;99.90
12446;DHT22;6287;50.984;7.022;2023-09-19T10:35:07;21.60;99.90
12446;DHT22;6287;50.984;7.022;2023-09-19T10:37:39;21.80;99.90
12446;DHT22;6287;50.984;7.022;2023-09-19T10:40:07;22.00;99.90
12446;DHT22;6287;50.984;7.022;2023-09-19T10:42:38;22.10;99.90
12446;DHT22;6287;50.984;7.022;2023-09-19T10:45:06;22.30;99.90
12446;DHT22;6287;50.984;7.022;2023-09-19T10:47:38;22.40;99.80
12446;DHT22;6287;50.984;7.022;2023-09-19T10:50:05;22.50;99.90
12446;DHT22;6287;50.984;7.022;2023-09-19T10:52:39;22.60;99.20
12446;DHT22;6287;50.984;7.022;2023-09-19T10:55:10;22.60;99.80
12446;DHT22;6287;50.984;7.022;2023-09-19T10:57:44;22.60;99.30
12446;DHT22;6287;50.984;7.022;2023-09-19T11:00:13;22.40;98.80
12446;DHT22;6287;50.984;7.022;2023-09-19T11:05:38;22.40;99.70
12446;DHT22;6287;50.984;7.022;2023-09-19T11:08:07;22.40;99.90
12446;DHT22;6287;50.984;7.022;2023-09-19T11:10:50;22.50;99.90
12446;DHT22;6287;50.984;7.022;2023-09-19T11:13:26;22.60;99.90
12446;DHT22;6287;50.984;7.022;2023-09-19T11:18:51;22.60;99.80
12446;DHT22;6287;50.984;7.022;2023-09-19T11:26:44;22.60;99.40
12446;DHT22;6287;50.984;7.022;2023-09-19T11:29:30;22.70;99.00
12446;DHT22;6287;50.984;7.022;2023-09-19T11:31:59;22.80;99.90
12446;DHT22;6287;50.984;7.022;2023-09-19T11:40:12;23.70;97.20
12446;DHT22;6287;50.984;7.022;2023-09-19T11:42:45;24.10;97.50
12446;DHT22;6287;50.984;7.022;2023-09-19T11:48:15;23.90;95.60
12446;DHT22;6287;50.984;7.022;2023-09-19T11:50:45;23.60;95.70
12446;DHT22;6287;50.984;7.022;2023-09-19T11:53:15;23.60;96.70
12446;DHT22;6287;50.984;7.022;2023-09-19T11:55:46;23.50;96.60
12446;DHT22;6287;50.984;7.022;2023-09-19T11:58:14;23.70;97.90
12446;DHT22;6287;50.984;7.022;2023-09-19T12:00:45;23.90;97.20
12446;DHT22;6287;50.984;7.022;2023-09-19T12:03:13;24.00;96.40
12446;DHT22;6287;50.984;7.022;2023-09-19T12:05:44;24.10;94.80
12446;DHT22;6287;50.984;7.022;2023-09-19T12:08:17;23.90;94.40
12446;DHT22;6287;50.984;7.022;2023-09-19T12:10:50;23.70;97.50
12446;DHT22;6287;50.984;7.022;2023-09-19T12:13:18;23.60;95.00
12446;DHT22;6287;50.984;7.022;2023-09-19T12:15:47;23.60;96.30
12446;DHT22;6287;50.984;7.022;2023-09-19T12:18:29;23.90;94.70
12446;DHT22;6287;50.984;7.022;2023-09-19T12:20:55;24.00;94.50
12446;DHT22;6287;50.984;7.022;2023-09-19T12:23:21;24.00;95.20
12446;DHT22;6287;50.984;7.022;2023-09-19T12:25:47;24.20;95.10
12446;DHT22;6287;50.984;7.022;2023-09-19T12:28:19;24.40;93.50
12446;DHT22;6287;50.984;7.022;2023-09-19T12:30:47;24.70;93.60
12446;DHT22;6287;50.984;7.022;2023-09-19T12:33:22;24.80;92.70
12446;DHT22;6287;50.984;7.022;2023-09-19T12:35:53;24.90;92.70
12446;DHT22;6287;50.984;7.022;2023-09-19T12:38:30;24.80;91.00
12446;DHT22;6287;50.984;7.022;2023-09-19T12:41:01;24.90;92.00
12446;DHT22;6287;50.984;7.022;2023-09-19T12:43:32;24.90;93.30
12446;DHT22;6287;50.984;7.022;2023-09-19T12:46:05;25.00;92.30
12446;DHT22;6287;50.984;7.022;2023-09-19T12:48:42;25.20;91.70
12446;DHT22;6287;50.984;7.022;2023-09-19T12:51:11;25.40;90.60
12446;DHT22;6287;50.984;7.022;2023-09-19T12:56:15;25.50;91.40
12446;DHT22;6287;50.984;7.022;2023-09-19T12:58:55;25.50;87.20
12446;DHT22;6287;50.984;7.022;2023-09-19T13:01:22;25.40;88.30
12446;DHT22;6287;50.984;7.022;2023-09-19T13:06:38;25.90;89.70
12446;DHT22;6287;50.984;7.022;2023-09-19T13:09:11;26.00;87.40
12446;DHT22;6287;50.984;7.022;2023-09-19T13:11:38;26.20;90.60
12446;DHT22;6287;50.984;7.022;2023-09-19T13:14:23;26.70;84.60
12446;DHT22;6287;50.984;7.022;2023-09-19T13:19:39;27.60;78.50
12446;DHT22;6287;50.984;7.022;2023-09-19T13:22:43;27.40;81.70
12446;DHT22;6287;50.984;7.022;2023-09-19T13:25:15;27.80;80.90
12446;DHT22;6287;50.984;7.022;2023-09-19T13:27:51;28.20;78.40
12446;DHT22;6287;50.984;7.022;2023-09-19T13:30:24;28.50;79.80
12446;DHT22;6287;50.984;7.022;2023-09-19T13:33:09;28.80;76.30
12446;DHT22;6287;50.984;7.022;2023-09-19T13:35:36;28.60;75.40
12446;DHT22;6287;50.984;7.022;2023-09-19T13:38:05;28.00;75.60
12446;DHT22;6287;50.984;7.022;2023-09-19T13:40:35;27.30;76.70
12446;DHT22;6287;50.984;7.022;2023-09-19T13:43:05;26.60;81.30
12446;DHT22;6287;50.984;7.022;2023-09-19T13:45:32;26.00;82.40
12446;DHT22;6287;50.984;7.022;2023-09-19T13:48:00;25.70;81.70
12446;DHT22;6287;50.984;7.022;2023-09-19T13:50:25;25.60;82.90
12446;DHT22;6287;50.984;7.022;2023-09-19T13:52:56;25.20;82.60
12446;DHT22;6287;50.984;7.022;2023-09-19T13:55:23;24.90;84.30
12446;DHT22;6287;50.984;7.022;2023-09-19T13:57:50;24.70;85.90
12446;DHT22;6287;50.984;7.022;2023-09-19T14:00:18;24.40;85.90
12446;DHT22;6287;50.984;7.022;2023-09-19T14:02:43;24.00;87.90
12446;DHT22;6287;50.984;7.022;2023-09-19T14:05:10;23.80;88.10
12446;DHT22;6287;50.984;7.022;2023-09-19T14:07:43;23.60;90.20
12446;DHT22;6287;50.984;7.022;2023-09-19T14:10:12;23.50;90.50
12446;DHT22;6287;50.984;7.022;2023-09-19T14:12:40;23.40;90.80
12446;DHT22;6287;50.984;7.022;2023-09-19T14:15:07;23.40;90.40
12446;DHT22;6287;50.984;7.022;2023-09-19T14:17:33;23.20;91.70
12446;DHT22;6287;50.984;7.022;2023-09-19T14:19:59;23.00;91.10
12446;DHT22;6287;50.984;7.022;2023-09-19T14:22:29;22.80;90.90
12446;DHT22;6287;50.984;7.022;2023-09-19T14:24:56;22.60;91.90
12446;DHT22;6287;50.984;7.022;2023-09-19T14:27:21;22.50;92.90
12446;DHT22;6287;50.984;7.022;2023-09-19T14:29:47;22.40;92.90
12446;DHT22;6287;50.984;7.022;2023-09-19T14:32:15;22.30;92.70
12446;DHT22;6287;50.984;7.022;2023-09-19T14:34:40;22.20;94.20
12446;DHT22;6287;50.984;7.022;2023-09-19T14:37:11;22.10;93.80
12446;DHT22;6287;50.984;7.022;2023-09-19T14:39:40;22.00;93.30
12446;DHT22;6287;50.984;7.022;2023-09-19T14:42:06;21.90;93.50
12446;DHT22;6287;50.984;7.022;2023-09-19T14:44:31;21.80;94.10
12446;DHT22;6287;50.984;7.022;2023-09-19T14:46:57;21.80;93.90
12446;DHT22;6287;50.984;7.022;2023-09-19T14:49:24;21.70;95.80
12446;DHT22;6287;50.984;7.022;2023-09-19T14:51:50;21.70;95.30
12446;DHT22;6287;50.984;7.022;2023-09-19T14:54:17;21.80;95.60
12446;DHT22;6287;50.984;7.022;2023-09-19T14:56:44;21.80;95.00
12446;DHT22;6287;50.984;7.022;2023-09-19T14:59:10;21.80;95.40
12446;DHT22;6287;50.984;7.022;2023-09-19T15:01:37;21.80;95.90
12446;DHT22;6287;50.984;7.022;2023-09-19T15:04:06;21.90;95.60
12446;DHT22;6287;50.984;7.022;2023-09-19T15:06:36;22.00;95.10
12446;DHT22;6287;50.984;7.022;2023-09-19T15:09:04;22.00;94.70
12446;DHT22;6287;50.984;7.022;2023-09-19T15:11:32;22.00;94.70
12446;DHT22;6287;50.984;7.022;2023-09-19T15:13:58;21.80;95.00
12446;DHT22;6287;50.984;7.022;2023-09-19T15:16:26;21.80;95.30
12446;DHT22;6287;50.984;7.022;2023-09-19T15:18:53;21.60;95.30
12446;DHT22;6287;50.984;7.022;2023-09-19T15:21:20;21.40;95.10
12446;DHT22;6287;50.984;7.022;2023-09-19T15:23:47;21.30;95.40
12446;DHT22;6287;50.984;7.022;2023-09-19T15:26:17;21.20;95.40
12446;DHT22;6287;50.984;7.022;2023-09-19T15:28:49;21.20;95.70
12446;DHT22;6287;50.984;7.022;2023-09-19T15:31:15;21.20;97.20
12446;DHT22;6287;50.984;7.022;2023-09-19T15:33:43;21.20;96.70
12446;DHT22;6287;50.984;7.022;2023-09-19T15:36:15;21.20;97.10
12446;DHT22;6287;50.984;7.022;2023-09-19T15:41:21;21.20;96.30
12446;DHT22;6287;50.984;7.022;2023-09-19T15:43:49;21.20;96.10
12446;DHT22;6287;50.984;7.022;2023-09-19T15:46:18;21.20;97.50
12446;DHT22;6287;50.984;7.022;2023-09-19T15:48:44;21.20;96.40
12446;DHT22;6287;50.984;7.022;2023-09-19T15:51:15;21.20;97.80
12446;DHT22;6287;50.984;7.022;2023-09-19T15:53:46;21.10;96.50
12446;DHT22;6287;50.984;7.022;2023-09-19T15:56:12;21.10;97.20
12446;DHT22;6287;50.984;7.022;2023-09-19T15:58:44;21.00;96.80
12446;DHT22;6287;50.984;7.022;2023-09-19T16:01:10;20.90;95.90
12446;DHT22;6287;50.984;7.022;2023-09-19T16:03:42;21.00;96.60
12446;DHT22;6287;50.984;7.022;2023-09-19T16:06:22;21.00;97.00
12446;DHT22;6287;50.984;7.022;2023-09-19T16:09:14;20.90;96.70
12446;DHT22;6287;50.984;7.022;2023-09-19T16:11:40;20.90;97.90
12446;DHT22;6287;50.984;7.022;2023-09-19T16:14:09;20.90;97.50
12446;DHT22;6287;50.984;7.022;2023-09-19T16:16:35;20.90;98.30
12446;DHT22;6287;50.984;7.022;2023-09-19T16:19:02;21.00;98.00
12446;DHT22;6287;50.984;7.022;2023-09-19T16:21:32;21.00;98.70
12446;DHT22;6287;50.984;7.022;2023-09-19T16:24:00;21.10;96.90
12446;DHT22;6287;50.984;7.022;2023-09-19T16:26:27;21.10;96.90
12446;DHT22;6287;50.984;7.022;2023-09-19T16:28:55;21.10;97.10
12446;DHT22;6287;50.984;7.022;2023-09-19T16:31:26;21.10;96.80
12446;DHT22;6287;50.984;7.022;2023-09-19T16:33:55;21.00;97.30
12446;DHT22;6287;50.984;7.022;2023-09-19T16:36:23;20.90;97.80
12446;DHT22;6287;50.984;7.022;2023-09-19T16:38:51;20.90;97.40
12446;DHT22;6287;50.984;7.022;2023-09-19T16:41:18;20.90;98.30
12446;DHT22;6287;50.984;7.022;2023-09-19T16:43:47;20.90;97.10
12446;DHT22;6287;50.984;7.022;2023-09-19T16:46:13;20.80;97.60
12446;DHT22;6287;50.984;7.022;2023-09-19T16:48:42;20.70;98.60
12446;DHT22;6287;50.984;7.022;2023-09-19T16:51:09;20.60;98.50
12446;DHT22;6287;50.984;7.022;2023-09-19T16:53:39;20.60;97.80
12446;DHT22;6287;50.984;7.022;2023-09-19T16:56:07;20.50;98.40
12446;DHT22;6287;50.984;7.022;2023-09-19T16:58:37;20.50;98.60
12446;DHT22;6287;50.984;7.022;2023-09-19T17:01:08;20.40;98.40
12446;DHT22;6287;50.984;7.022;2023-09-19T17:03:40;20.40;99.30
12446;DHT22;6287;50.984;7.022;2023-09-19T17:06:07;20.40;99.50